createdAt,value
2023-02-13T00:02:44.095Z,26
2023-02-13T00:07:26.510Z,27.8
2023-02-13T00:12:08.883Z,25.5
2023-02-13T00:21:34.003Z,33.7
2023-02-13T00:26:16.562Z,32.59
2023-02-13T00:30:58.943Z,29.1
2023-02-13T00:35:41.475Z,40.7
2023-02-13T00:40:23.898Z,37.9
2023-02-13T00:45:06.468Z,48.9
2023-02-13T00:49:48.961Z,50.6
2023-02-13T00:54:31.422Z,55.4
2023-02-13T00:59:13.895Z,56.7
2023-02-13T01:08:38.909Z,54.9
2023-02-13T01:13:21.411Z,43.8
2023-02-13T01:18:02.913Z,51.8
2023-02-13T01:22:45.492Z,51
2023-02-13T01:27:27.988Z,51.7
2023-02-13T01:32:10.514Z,48.9
2023-02-13T01:36:52.972Z,45.2
2023-02-13T01:41:35.487Z,40.09
2023-02-13T01:46:17.960Z,41.1
2023-02-13T01:55:42.855Z,37.5
2023-02-13T02:00:24.306Z,35.7
2023-02-13T02:05:05.692Z,35
2023-02-13T02:09:47.713Z,38.8
2023-02-13T02:14:30.163Z,37.4
2023-02-13T02:19:12.273Z,35.2
2023-02-13T02:23:54.730Z,38.59
2023-02-13T02:28:36.916Z,36.3
2023-02-13T02:33:19.210Z,36.9
2023-02-13T02:38:01.487Z,38.3
2023-02-13T02:42:43.818Z,41.9
2023-02-13T02:47:26.068Z,41.4
2023-02-13T02:52:07.444Z,37.8
2023-02-13T02:56:48.671Z,36.5
2023-02-13T03:01:30.899Z,38.2
2023-02-13T03:06:13.303Z,38
2023-02-13T03:10:55.503Z,34.59
2023-02-13T03:15:37.762Z,37.5
2023-02-13T03:20:20.084Z,39.4
2023-02-13T03:29:44.642Z,35.59
2023-02-13T03:34:26.988Z,39.59
2023-02-13T03:39:09.184Z,39.5
2023-02-13T03:43:51.418Z,36.7
2023-02-13T03:48:33.766Z,37.4
2023-02-13T03:53:16.086Z,39.09
2023-02-13T03:57:57.291Z,38.7
2023-02-13T04:02:39.604Z,35.2
2023-02-13T04:07:21.931Z,37.09
2023-02-13T04:16:46.527Z,41.1
2023-02-13T04:21:27.976Z,33.09
2023-02-13T04:26:09.048Z,39
2023-02-13T04:30:51.361Z,34
2023-02-13T04:35:33.689Z,33.8
2023-02-13T04:40:15.924Z,30.8
2023-02-13T04:44:58.250Z,30.5
2023-02-13T04:49:40.801Z,29.7
2023-02-13T04:54:22.784Z,35.9
2023-02-13T05:03:47.337Z,32.3
2023-02-13T05:08:29.657Z,32.8
2023-02-13T05:13:11.912Z,29.5
2023-02-13T05:17:54.217Z,29.3
2023-02-13T05:22:36.438Z,28.2
2023-02-13T05:27:17.764Z,27.4
2023-02-13T05:32:00.154Z,27.5
2023-02-13T05:36:42.375Z,25.9
2023-02-13T05:41:24.822Z,28.7
2023-02-13T05:50:49.187Z,27.2
2023-02-13T05:55:31.526Z,25.5
2023-02-13T06:00:13.734Z,25.4
2023-02-13T06:04:56.136Z,28.8
2023-02-13T06:09:37.395Z,24.8
2023-02-13T06:14:18.702Z,26
2023-02-13T06:19:00.941Z,24.1
2023-02-13T06:23:43.274Z,31.6
2023-02-13T06:28:25.475Z,31
2023-02-13T06:37:50.139Z,34.8
2023-02-13T06:42:32.471Z,30.2
2023-02-13T06:47:14.842Z,40.3
2023-02-13T06:51:57.094Z,41.7
2023-02-13T06:56:39.408Z,41.1
2023-02-13T07:01:21.723Z,39.7
2023-02-13T07:06:03.784Z,38.5
2023-02-13T07:10:45.108Z,40.7
2023-02-13T07:15:27.362Z,41.9
2023-02-13T07:24:52.082Z,37.8
2023-02-13T07:29:34.362Z,38.5
2023-02-13T07:34:16.530Z,49.8
2023-02-13T07:38:58.816Z,44.5
2023-02-13T07:43:41.239Z,39.7
2023-02-13T07:48:23.553Z,48
2023-02-13T07:53:05.761Z,41.6
2023-02-13T07:57:48.064Z,39.9
2023-02-13T08:02:30.199Z,44
2023-02-13T08:07:12.663Z,39.59
2023-02-13T08:21:18.512Z,27.4
2023-02-13T08:26:00.770Z,26.3
2023-02-13T08:30:43.142Z,28.1
2023-02-13T08:35:25.268Z,30.7
2023-02-13T08:40:07.651Z,28.8
2023-02-13T08:44:49.811Z,29.3
2023-02-13T08:49:32.126Z,28.5
2023-02-13T08:54:14.456Z,28
2023-02-13T08:58:56.714Z,25.5
2023-02-13T09:03:39.044Z,22.3
2023-02-13T09:08:21.270Z,25.9
2023-02-13T09:13:03.501Z,22
2023-02-13T09:17:45.816Z,23.1
2023-02-13T09:22:28.011Z,23.5
2023-02-13T09:31:52.581Z,21.3
2023-02-13T09:36:34.902Z,17.4
2023-02-13T09:45:59.437Z,16.4
2023-02-13T09:50:41.771Z,18.1
2023-02-13T10:00:06.311Z,15.3
2023-02-13T10:04:48.543Z,18.7
2023-02-13T10:09:31.043Z,13.6
2023-02-13T10:14:13.098Z,14.9
2023-02-13T10:18:55.418Z,13.2
2023-02-13T10:28:19.960Z,10.4
2023-02-13T10:37:44.516Z,11.9
2023-02-13T10:42:26.745Z,11.2
2023-02-13T10:47:09.061Z,8.89
2023-02-13T10:51:51.390Z,9.39
2023-02-13T10:56:33.804Z,7.7
2023-02-13T11:05:58.272Z,5.4
2023-02-13T11:20:05.343Z,6.1
2023-02-13T11:24:47.664Z,4.9
2023-02-13T11:29:29.992Z,3.7
2023-02-13T11:34:12.313Z,5.6
2023-02-13T11:38:54.753Z,4.69
2023-02-13T11:43:37.158Z,10.1
2023-02-13T11:48:19.481Z,3.8
2023-02-13T11:53:01.714Z,4.3
2023-02-13T12:02:26.474Z,4
2023-02-13T12:16:33.961Z,3.6
2023-02-13T12:21:16.550Z,4.1
2023-02-13T12:25:58.901Z,3.9
2023-02-13T12:30:41.750Z,3.9
2023-02-13T12:35:23.851Z,3.9
2023-02-13T12:40:06.516Z,4.3
2023-02-13T12:49:31.440Z,4.4
2023-02-13T12:54:13.855Z,4.8
2023-02-13T12:58:55.591Z,4.6
2023-02-13T13:03:38.061Z,3.4
2023-02-13T13:08:20.502Z,3.6
2023-02-13T13:13:03.071Z,4.4
2023-02-13T13:17:45.573Z,3.2
2023-02-13T13:22:28.012Z,3.3
2023-02-13T13:27:10.345Z,3.7
2023-02-13T13:36:35.474Z,3.7
2023-02-13T13:41:17.871Z,4.69
2023-02-13T13:46:00.268Z,3.5
2023-02-13T13:50:42.972Z,4.3
2023-02-13T13:55:25.344Z,6
2023-02-13T14:00:07.794Z,4.69
2023-02-13T14:04:50.213Z,4.69
2023-02-13T14:09:32.797Z,5.3
2023-02-13T14:14:15.328Z,5.1
2023-02-13T14:23:40.198Z,4.6
2023-02-13T14:28:22.627Z,5.1
2023-02-13T14:37:46.739Z,5.8
2023-02-13T14:42:29.342Z,4.19
2023-02-13T14:47:11.700Z,5.9
2023-02-13T14:51:54.150Z,4.8
2023-02-13T14:56:36.791Z,5.7
2023-02-13T15:01:19.280Z,5.5
2023-02-13T15:10:44.071Z,6
2023-02-13T15:15:26.666Z,8.3
2023-02-13T15:20:09.101Z,4.69
2023-02-13T15:24:51.648Z,7.2
2023-02-13T15:29:34.075Z,7.9
2023-02-13T15:34:16.494Z,6.3
2023-02-13T15:38:59.031Z,5
2023-02-13T15:43:41.585Z,5.2
2023-02-13T15:48:23.961Z,6.5
2023-02-13T15:57:49.529Z,7.5
2023-02-13T16:02:31.553Z,8.2
2023-02-13T16:07:14.002Z,7
2023-02-13T16:11:56.480Z,7.6
2023-02-13T16:16:38.956Z,6.9
2023-02-13T16:21:21.399Z,8.2
2023-02-13T16:30:45.567Z,8.89
2023-02-13T16:44:53.004Z,8.6
2023-02-13T16:49:35.545Z,9.7
2023-02-13T16:59:00.380Z,12.4
2023-02-13T17:03:42.899Z,13.7
2023-02-13T17:08:25.328Z,15.3
2023-02-13T17:13:07.842Z,15
2023-02-13T17:17:50.327Z,12.3
2023-02-13T17:22:32.827Z,13.1
2023-02-13T17:31:57.751Z,12.8
2023-02-13T17:36:40.283Z,15
2023-02-13T17:41:21.982Z,14.8
2023-02-13T17:46:04.475Z,14.4
2023-02-13T17:50:46.858Z,16.9
2023-02-13T17:55:29.372Z,16.5
2023-02-13T18:00:11.862Z,18.4
2023-02-13T18:04:54.294Z,16.2
2023-02-13T18:09:36.810Z,19
2023-02-13T18:19:01.755Z,19.4
2023-02-13T18:23:44.333Z,18.29
2023-02-13T18:28:26.792Z,20.8
2023-02-13T18:33:09.326Z,22.4
2023-02-13T18:37:51.742Z,23.3
2023-02-13T18:42:34.186Z,28.4
2023-02-13T18:51:58.369Z,22.1
2023-02-13T18:56:40.732Z,22.1
2023-02-13T19:06:05.777Z,26.3
2023-02-13T19:10:48.196Z,28
2023-02-13T19:15:30.839Z,31.3
2023-02-13T19:20:13.323Z,35.2
2023-02-13T19:24:55.675Z,34.09
2023-02-13T19:29:38.201Z,35.8
2023-02-13T19:34:20.723Z,39.3
2023-02-13T19:39:03.178Z,38.59
2023-02-13T19:43:45.670Z,42
2023-02-13T19:53:10.642Z,41.3
2023-02-13T19:57:53.148Z,41.6
2023-02-13T20:02:34.773Z,47.6
2023-02-13T20:07:17.192Z,41.8
2023-02-13T20:11:59.736Z,39.9
2023-02-13T20:16:42.244Z,47.3
2023-02-13T20:21:24.849Z,45.4
2023-02-13T20:26:07.282Z,52
2023-02-13T20:30:49.816Z,49.8
2023-02-13T20:40:14.644Z,49.2
2023-02-13T20:44:57.368Z,47.9
2023-02-13T20:49:39.812Z,48.6
2023-02-13T20:54:22.252Z,47.7
2023-02-13T20:59:04.799Z,49.8
2023-02-13T21:03:47.072Z,42.9
2023-02-13T21:08:28.687Z,41.1
2023-02-13T21:13:11.213Z,40.09
2023-02-13T21:17:53.623Z,39
2023-02-13T21:27:18.677Z,43.1
2023-02-13T21:32:01.105Z,40
2023-02-13T21:36:43.632Z,33.2
2023-02-13T21:41:26.148Z,35.2
2023-02-13T21:46:08.573Z,34
2023-02-13T21:50:51.092Z,34.5
2023-02-13T21:55:33.523Z,37.8
2023-02-13T22:00:16.052Z,33.59
2023-02-13T22:14:23.521Z,34
2023-02-13T22:19:06.048Z,32.7
2023-02-13T22:23:47.686Z,33.5
2023-02-13T22:28:30.482Z,33.59
2023-02-13T22:33:12.613Z,36
2023-02-13T22:37:55.038Z,32.2
2023-02-13T22:42:37.566Z,26.7
2023-02-13T22:47:20.080Z,31.1
2023-02-13T22:52:02.531Z,31.3
2023-02-13T23:01:27.560Z,28.3
2023-02-13T23:06:09.970Z,30.4
2023-02-13T23:10:51.592Z,25.5
2023-02-13T23:15:34.122Z,26.2
2023-02-13T23:20:16.777Z,30.2
2023-02-13T23:24:59.063Z,26.8
2023-02-13T23:29:41.600Z,23.2
2023-02-13T23:34:24.107Z,27.9
2023-02-13T23:39:06.534Z,26.4
2023-02-13T23:48:31.492Z,24.8
2023-02-13T23:53:14.001Z,25
2023-02-13T23:57:56.527Z,27.1
